sensor_id;sensor_type;location;lat;lon;timestamp;temperature;humidity
23568;DHT22;11962;50.838;4.430;2023-02-03T00:02:21;11.30;99.90
23568;DHT22;11962;50.838;4.430;2023-02-03T00:04:47;11.30;99.90
23568;DHT22;11962;50.838;4.430;2023-02-03T00:07:13;11.30;99.90
23568;DHT22;11962;50.838;4.430;2023-02-03T00:09:40;11.30;99.90
23568;DHT22;11962;50.838;4.430;2023-02-03T00:12:06;11.30;99.90
23568;DHT22;11962;50.838;4.430;2023-02-03T00:14:32;11.20;99.90
23568;DHT22;11962;50.838;4.430;2023-02-03T00:16:58;11.20;99.90
23568;DHT22;11962;50.838;4.430;2023-02-03T00:19:24;11.20;99.90
23568;DHT22;11962;50.838;4.430;2023-02-03T00:21:49;11.20;99.90
23568;DHT22;11962;50.838;4.430;2023-02-03T00:24:16;11.20;99.90
23568;DHT22;11962;50.838;4.430;2023-02-03T00:26:44;11.20;99.90
23568;DHT22;11962;50.838;4.430;2023-02-03T00:29:10;11.20;99.90
23568;DHT22;11962;50.838;4.430;2023-02-03T00:31:36;11.20;99.90
23568;DHT22;11962;50.838;4.430;2023-02-03T00:34:02;11.30;99.90
23568;DHT22;11962;50.838;4.430;2023-02-03T00:36:28;11.30;99.90
23568;DHT22;11962;50.838;4.430;2023-02-03T00:38:53;11.20;99.90
23568;DHT22;11962;50.838;4.430;2023-02-03T00:41:20;11.20;99.90
23568;DHT22;11962;50.838;4.430;2023-02-03T00:43:51;11.20;99.90
23568;DHT22;11962;50.838;4.430;2023-02-03T00:46:16;11.20;99.90
23568;DHT22;11962;50.838;4.430;2023-02-03T00:48:42;11.20;99.90
23568;DHT22;11962;50.838;4.430;2023-02-03T00:51:08;11.20;99.90
23568;DHT22;11962;50.838;4.430;2023-02-03T00:53:34;11.30;99.90
23568;DHT22;11962;50.838;4.430;2023-02-03T00:55:59;11.20;99.90
23568;DHT22;11962;50.838;4.430;2023-02-03T00:58:25;11.20;99.90
23568;DHT22;11962;50.838;4.430;2023-02-03T01:00:52;11.30;99.90
23568;DHT22;11962;50.838;4.430;2023-02-03T01:03:18;11.30;99.90
23568;DHT22;11962;50.838;4.430;2023-02-03T01:05:44;11.30;99.90
23568;DHT22;11962;50.838;4.430;2023-02-03T01:08:09;11.30;99.90
23568;DHT22;11962;50.838;4.430;2023-02-03T01:10:37;11.30;99.90
23568;DHT22;11962;50.838;4.430;2023-02-03T01:13:09;11.40;99.90
23568;DHT22;11962;50.838;4.430;2023-02-03T01:15:35;11.40;99.90
23568;DHT22;11962;50.838;4.430;2023-02-03T01:18:00;11.40;99.90
23568;DHT22;11962;50.838;4.430;2023-02-03T01:20:26;11.40;99.90
23568;DHT22;11962;50.838;4.430;2023-02-03T01:22:52;11.50;99.90
23568;DHT22;11962;50.838;4.430;2023-02-03T01:25:17;11.40;99.90
23568;DHT22;11962;50.838;4.430;2023-02-03T01:27:55;11.40;99.90
23568;DHT22;11962;50.838;4.430;2023-02-03T01:30:21;11.40;99.90
23568;DHT22;11962;50.838;4.430;2023-02-03T01:32:47;11.30;99.90
23568;DHT22;11962;50.838;4.430;2023-02-03T01:35:13;11.30;99.90
23568;DHT22;11962;50.838;4.430;2023-02-03T01:37:38;11.20;99.90
23568;DHT22;11962;50.838;4.430;2023-02-03T01:40:04;11.30;99.90
23568;DHT22;11962;50.838;4.430;2023-02-03T01:42:49;11.40;99.90
23568;DHT22;11962;50.838;4.430;2023-02-03T01:45:18;11.40;99.90
23568;DHT22;11962;50.838;4.430;2023-02-03T01:47:56;11.40;99.90
23568;DHT22;11962;50.838;4.430;2023-02-03T01:50:28;11.40;99.90
23568;DHT22;11962;50.838;4.430;2023-02-03T01:53:00;11.40;99.90
23568;DHT22;11962;50.838;4.430;2023-02-03T01:55:32;11.40;99.90
23568;DHT22;11962;50.838;4.430;2023-02-03T01:58:11;11.40;99.90
23568;DHT22;11962;50.838;4.430;2023-02-03T02:00:40;11.40;99.90
23568;DHT22;11962;50.838;4.430;2023-02-03T02:03:09;11.50;99.90
23568;DHT22;11962;50.838;4.430;2023-02-03T02:08:08;11.40;99.90
23568;DHT22;11962;50.838;4.430;2023-02-03T02:10:34;11.40;99.90
23568;DHT22;11962;50.838;4.430;2023-02-03T02:13:02;11.40;99.90
23568;DHT22;11962;50.838;4.430;2023-02-03T02:37:11;11.50;99.90
23568;DHT22;11962;50.838;4.430;2023-02-03T02:39:59;11.50;99.90
23568;DHT22;11962;50.838;4.430;2023-02-03T02:45:49;11.50;99.90
23568;DHT22;11962;50.838;4.430;2023-02-03T02:48:26;11.40;99.90
23568;DHT22;11962;50.838;4.430;2023-02-03T02:50:55;11.40;99.90
23568;DHT22;11962;50.838;4.430;2023-02-03T02:53:24;11.40;99.90
23568;DHT22;11962;50.838;4.430;2023-02-03T02:55:52;11.30;99.90
23568;DHT22;11962;50.838;4.430;2023-02-03T02:58:19;11.30;99.90
23568;DHT22;11962;50.838;4.430;2023-02-03T03:00:46;11.30;99.90
23568;DHT22;11962;50.838;4.430;2023-02-03T03:03:16;11.30;99.90
23568;DHT22;11962;50.838;4.430;2023-02-03T03:05:47;11.20;99.90
23568;DHT22;11962;50.838;4.430;2023-02-03T03:08:16;11.30;99.90
23568;DHT22;11962;50.838;4.430;2023-02-03T03:10:44;11.30;99.90
23568;DHT22;11962;50.838;4.430;2023-02-03T03:13:16;11.40;99.90
23568;DHT22;11962;50.838;4.430;2023-02-03T03:15:43;11.40;99.90
23568;DHT22;11962;50.838;4.430;2023-02-03T03:18:15;11.40;99.90
23568;DHT22;11962;50.838;4.430;2023-02-03T03:20:45;11.50;99.90
23568;DHT22;11962;50.838;4.430;2023-02-03T03:23:30;11.50;99.90
23568;DHT22;11962;50.838;4.430;2023-02-03T03:26:03;11.40;99.90
23568;DHT22;11962;50.838;4.430;2023-02-03T03:29:05;11.40;99.90
23568;DHT22;11962;50.838;4.430;2023-02-03T03:31:31;11.40;99.90
23568;DHT22;11962;50.838;4.430;2023-02-03T03:33:57;11.40;99.90
23568;DHT22;11962;50.838;4.430;2023-02-03T03:41:25;11.40;99.90
23568;DHT22;11962;50.838;4.430;2023-02-03T03:43:54;11.40;99.90
23568;DHT22;11962;50.838;4.430;2023-02-03T03:46:27;11.40;99.90
23568;DHT22;11962;50.838;4.430;2023-02-03T03:49:05;11.40;99.90
23568;DHT22;11962;50.838;4.430;2023-02-03T03:51:45;11.40;99.90
23568;DHT22;11962;50.838;4.430;2023-02-03T03:54:16;11.40;99.90
23568;DHT22;11962;50.838;4.430;2023-02-03T03:56:59;11.40;99.90
23568;DHT22;11962;50.838;4.430;2023-02-03T03:59:30;11.50;99.90
23568;DHT22;11962;50.838;4.430;2023-02-03T04:01:58;11.50;99.90
23568;DHT22;11962;50.838;4.430;2023-02-03T04:04:29;11.60;99.90
23568;DHT22;11962;50.838;4.430;2023-02-03T04:06:55;11.60;99.90
23568;DHT22;11962;50.838;4.430;2023-02-03T04:09:21;11.60;99.90
23568;DHT22;11962;50.838;4.430;2023-02-03T04:11:47;11.50;99.90
23568;DHT22;11962;50.838;4.430;2023-02-03T04:14:33;11.40;99.90
23568;DHT22;11962;50.838;4.430;2023-02-03T04:17:01;11.40;99.90
23568;DHT22;11962;50.838;4.430;2023-02-03T04:19:27;11.40;99.90
23568;DHT22;11962;50.838;4.430;2023-02-03T04:21:53;11.40;99.90
23568;DHT22;11962;50.838;4.430;2023-02-03T04:24:18;11.40;99.90
23568;DHT22;11962;50.838;4.430;2023-02-03T04:26:44;11.40;99.90
23568;DHT22;11962;50.838;4.430;2023-02-03T04:29:19;11.30;99.90
23568;DHT22;11962;50.838;4.430;2023-02-03T04:31:45;11.40;99.90
23568;DHT22;11962;50.838;4.430;2023-02-03T04:34:10;11.40;99.90
23568;DHT22;11962;50.838;4.430;2023-02-03T04:36:36;11.30;99.90
23568;DHT22;11962;50.838;4.430;2023-02-03T04:39:02;11.30;99.90
23568;DHT22;11962;50.838;4.430;2023-02-03T04:41:28;11.30;99.90
23568;DHT22;11962;50.838;4.430;2023-02-03T04:43:53;11.30;99.90
23568;DHT22;11962;50.838;4.430;2023-02-03T04:46:19;11.30;99.90
23568;DHT22;11962;50.838;4.430;2023-02-03T04:48:45;11.30;99.90
23568;DHT22;11962;50.838;4.430;2023-02-03T04:51:10;11.40;99.90
23568;DHT22;11962;50.838;4.430;2023-02-03T04:53:36;11.30;99.90
23568;DHT22;11962;50.838;4.430;2023-02-03T04:56:02;11.30;99.90
23568;DHT22;11962;50.838;4.430;2023-02-03T04:58:28;11.40;99.90
23568;DHT22;11962;50.838;4.430;2023-02-03T05:01:19;11.40;99.90
23568;DHT22;11962;50.838;4.430;2023-02-03T05:03:44;11.40;99.90
23568;DHT22;11962;50.838;4.430;2023-02-03T05:06:10;11.40;99.90
23568;DHT22;11962;50.838;4.430;2023-02-03T05:08:36;11.40;99.90
23568;DHT22;11962;50.838;4.430;2023-02-03T05:11:02;11.40;99.90
23568;DHT22;11962;50.838;4.430;2023-02-03T05:13:27;11.40;99.90
23568;DHT22;11962;50.838;4.430;2023-02-03T05:15:53;11.30;99.90
23568;DHT22;11962;50.838;4.430;2023-02-03T05:18:19;11.30;99.90
23568;DHT22;11962;50.838;4.430;2023-02-03T05:20:45;11.30;99.90
23568;DHT22;11962;50.838;4.430;2023-02-03T05:23:10;11.40;99.90
23568;DHT22;11962;50.838;4.430;2023-02-03T05:25:36;11.40;99.90
23568;DHT22;11962;50.838;4.430;2023-02-03T05:28:07;11.40;99.90
23568;DHT22;11962;50.838;4.430;2023-02-03T05:30:42;11.40;99.90
23568;DHT22;11962;50.838;4.430;2023-02-03T05:33:07;11.40;99.90
23568;DHT22;11962;50.838;4.430;2023-02-03T05:35:33;11.40;99.90
23568;DHT22;11962;50.838;4.430;2023-02-03T05:37:59;11.40;99.90
23568;DHT22;11962;50.838;4.430;2023-02-03T05:40:25;11.40;99.90
23568;DHT22;11962;50.838;4.430;2023-02-03T05:43:10;11.40;99.90
23568;DHT22;11962;50.838;4.430;2023-02-03T05:45:35;11.50;99.90
23568;DHT22;11962;50.838;4.430;2023-02-03T05:48:01;11.50;99.90
23568;DHT22;11962;50.838;4.430;2023-02-03T05:50:30;11.50;99.90
23568;DHT22;11962;50.838;4.430;2023-02-03T05:53:03;11.70;99.90
23568;DHT22;11962;50.838;4.430;2023-02-03T05:55:30;11.70;99.90
23568;DHT22;11962;50.838;4.430;2023-02-03T05:57:57;11.60;99.90
23568;DHT22;11962;50.838;4.430;2023-02-03T06:00:38;11.60;99.90
23568;DHT22;11962;50.838;4.430;2023-02-03T06:03:04;11.70;99.90
23568;DHT22;11962;50.838;4.430;2023-02-03T06:05:31;11.70;99.90
23568;DHT22;11962;50.838;4.430;2023-02-03T06:07:57;11.70;99.90
23568;DHT22;11962;50.838;4.430;2023-02-03T06:10:24;11.60;99.90
23568;DHT22;11962;50.838;4.430;2023-02-03T06:12:50;11.60;99.90
23568;DHT22;11962;50.838;4.430;2023-02-03T06:15:16;11.60;99.90
23568;DHT22;11962;50.838;4.430;2023-02-03T06:17:46;11.70;99.90
23568;DHT22;11962;50.838;4.430;2023-02-03T06:20:18;11.60;99.90
23568;DHT22;11962;50.838;4.430;2023-02-03T06:22:44;11.60;99.90
23568;DHT22;11962;50.838;4.430;2023-02-03T06:25:10;11.60;99.90
23568;DHT22;11962;50.838;4.430;2023-02-03T06:27:36;11.50;99.90
23568;DHT22;11962;50.838;4.430;2023-02-03T06:30:02;11.50;99.90
23568;DHT22;11962;50.838;4.430;2023-02-03T06:32:28;11.50;99.90
23568;DHT22;11962;50.838;4.430;2023-02-03T06:34:55;11.50;99.90
23568;DHT22;11962;50.838;4.430;2023-02-03T06:37:21;11.50;99.90
23568;DHT22;11962;50.838;4.430;2023-02-03T06:39:46;11.50;99.90
23568;DHT22;11962;50.838;4.430;2023-02-03T06:42:12;11.50;99.90
23568;DHT22;11962;50.838;4.430;2023-02-03T06:44:38;11.50;99.90
23568;DHT22;11962;50.838;4.430;2023-02-03T06:50:26;11.50;99.90
23568;DHT22;11962;50.838;4.430;2023-02-03T06:52:52;11.60;99.90
23568;DHT22;11962;50.838;4.430;2023-02-03T06:55:19;11.50;99.90
23568;DHT22;11962;50.838;4.430;2023-02-03T06:57:46;11.60;99.90
23568;DHT22;11962;50.838;4.430;2023-02-03T07:00:15;11.60;99.90
23568;DHT22;11962;50.838;4.430;2023-02-03T07:02:41;11.60;99.90
23568;DHT22;11962;50.838;4.430;2023-02-03T07:05:07;11.60;99.90
23568;DHT22;11962;50.838;4.430;2023-02-03T07:07:34;11.70;99.90
23568;DHT22;11962;50.838;4.430;2023-02-03T07:10:00;11.70;99.90
23568;DHT22;11962;50.838;4.430;2023-02-03T07:12:26;11.70;99.90
23568;DHT22;11962;50.838;4.430;2023-02-03T07:14:52;11.70;99.90
23568;DHT22;11962;50.838;4.430;2023-02-03T07:17:18;11.70;99.90
23568;DHT22;11962;50.838;4.430;2023-02-03T07:19:43;11.60;99.90
23568;DHT22;11962;50.838;4.430;2023-02-03T07:22:12;11.70;99.90
23568;DHT22;11962;50.838;4.430;2023-02-03T07:24:37;11.70;99.90
23568;DHT22;11962;50.838;4.430;2023-02-03T07:27:03;11.70;99.90
23568;DHT22;11962;50.838;4.430;2023-02-03T07:29:29;11.70;99.90
23568;DHT22;11962;50.838;4.430;2023-02-03T07:31:55;11.70;99.90
23568;DHT22;11962;50.838;4.430;2023-02-03T07:34:21;11.60;99.90
23568;DHT22;11962;50.838;4.430;2023-02-03T07:36:47;11.70;99.90
23568;DHT22;11962;50.838;4.430;2023-02-03T07:39:12;11.70;99.90
23568;DHT22;11962;50.838;4.430;2023-02-03T07:41:38;11.80;99.90
23568;DHT22;11962;50.838;4.430;2023-02-03T07:44:04;11.70;99.90
23568;DHT22;11962;50.838;4.430;2023-02-03T07:46:42;11.70;99.90
23568;DHT22;11962;50.838;4.430;2023-02-03T07:49:13;11.80;99.90
23568;DHT22;11962;50.838;4.430;2023-02-03T07:51:39;11.90;99.90
23568;DHT22;11962;50.838;4.430;2023-02-03T07:54:05;11.90;99.90
23568;DHT22;11962;50.838;4.430;2023-02-03T07:56:31;11.90;99.90
23568;DHT22;11962;50.838;4.430;2023-02-03T07:58:58;11.90;99.90
23568;DHT22;11962;50.838;4.430;2023-02-03T08:01:39;11.90;99.90
23568;DHT22;11962;50.838;4.430;2023-02-03T08:04:05;11.90;99.90
23568;DHT22;11962;50.838;4.430;2023-02-03T08:06:31;11.90;99.90
23568;DHT22;11962;50.838;4.430;2023-02-03T08:08:57;12.00;99.90
23568;DHT22;11962;50.838;4.430;2023-02-03T08:11:25;12.00;99.90
23568;DHT22;11962;50.838;4.430;2023-02-03T08:13:51;11.90;99.90
23568;DHT22;11962;50.838;4.430;2023-02-03T08:16:32;11.90;99.90
23568;DHT22;11962;50.838;4.430;2023-02-03T08:18:58;11.90;99.90
23568;DHT22;11962;50.838;4.430;2023-02-03T08:21:24;11.80;99.90
23568;DHT22;11962;50.838;4.430;2023-02-03T08:23:50;11.80;99.90
23568;DHT22;11962;50.838;4.430;2023-02-03T08:26:15;11.80;99.90
23568;DHT22;11962;50.838;4.430;2023-02-03T08:28:41;11.80;99.90
23568;DHT22;11962;50.838;4.430;2023-02-03T08:31:11;11.80;99.90
23568;DHT22;11962;50.838;4.430;2023-02-03T08:33:37;11.80;99.90
23568;DHT22;11962;50.838;4.430;2023-02-03T08:36:04;11.90;99.90
23568;DHT22;11962;50.838;4.430;2023-02-03T08:38:30;12.00;99.90
23568;DHT22;11962;50.838;4.430;2023-02-03T08:40:56;12.00;99.90
23568;DHT22;11962;50.838;4.430;2023-02-03T08:43:22;12.00;99.90
23568;DHT22;11962;50.838;4.430;2023-02-03T08:45:47;12.10;99.90
23568;DHT22;11962;50.838;4.430;2023-02-03T08:48:13;12.10;99.90
23568;DHT22;11962;50.838;4.430;2023-02-03T08:50:42;12.20;99.90
23568;DHT22;11962;50.838;4.430;2023-02-03T08:53:09;12.40;99.90
23568;DHT22;11962;50.838;4.430;2023-02-03T08:55:38;12.40;99.90
23568;DHT22;11962;50.838;4.430;2023-02-03T08:58:04;12.40;99.90
23568;DHT22;11962;50.838;4.430;2023-02-03T09:00:29;12.40;99.90
23568;DHT22;11962;50.838;4.430;2023-02-03T09:02:55;12.50;99.90
23568;DHT22;11962;50.838;4.430;2023-02-03T09:05:21;12.50;99.90
23568;DHT22;11962;50.838;4.430;2023-02-03T09:07:47;12.40;99.90
23568;DHT22;11962;50.838;4.430;2023-02-03T09:10:13;12.40;99.90
23568;DHT22;11962;50.838;4.430;2023-02-03T09:12:38;12.50;99.90
23568;DHT22;11962;50.838;4.430;2023-02-03T09:15:04;12.50;99.90
23568;DHT22;11962;50.838;4.430;2023-02-03T09:17:30;12.60;99.90
23568;DHT22;11962;50.838;4.430;2023-02-03T09:19:57;12.50;99.90
23568;DHT22;11962;50.838;4.430;2023-02-03T09:22:23;12.50;99.90
23568;DHT22;11962;50.838;4.430;2023-02-03T09:24:48;12.50;99.90
23568;DHT22;11962;50.838;4.430;2023-02-03T09:27:16;12.50;99.90
23568;DHT22;11962;50.838;4.430;2023-02-03T09:29:41;12.50;99.90
23568;DHT22;11962;50.838;4.430;2023-02-03T09:32:10;12.50;99.90
23568;DHT22;11962;50.838;4.430;2023-02-03T09:34:37;12.50;99.90
23568;DHT22;11962;50.838;4.430;2023-02-03T09:37:04;12.50;99.90
23568;DHT22;11962;50.838;4.430;2023-02-03T09:39:30;12.50;99.90
23568;DHT22;11962;50.838;4.430;2023-02-03T09:47:38;12.50;99.90
23568;DHT22;11962;50.838;4.430;2023-02-03T09:50:10;12.50;99.90
23568;DHT22;11962;50.838;4.430;2023-02-03T09:52:37;12.40;99.90
23568;DHT22;11962;50.838;4.430;2023-02-03T09:57:36;12.40;99.90
23568;DHT22;11962;50.838;4.430;2023-02-03T10:00:19;12.40;99.90
23568;DHT22;11962;50.838;4.430;2023-02-03T10:11:26;12.50;99.90
23568;DHT22;11962;50.838;4.430;2023-02-03T10:17:35;12.60;99.90
23568;DHT22;11962;50.838;4.430;2023-02-03T10:19:50;12.70;99.90
23568;DHT22;11962;50.838;4.430;2023-02-03T10:22:21;12.80;99.90
23568;DHT22;11962;50.838;4.430;2023-02-03T10:27:23;13.00;99.90
23568;DHT22;11962;50.838;4.430;2023-02-03T10:30:05;13.00;99.90
23568;DHT22;11962;50.838;4.430;2023-02-03T10:32:35;13.20;99.90
23568;DHT22;11962;50.838;4.430;2023-02-03T10:35:02;13.40;99.90
23568;DHT22;11962;50.838;4.430;2023-02-03T10:37:34;13.50;99.90
23568;DHT22;11962;50.838;4.430;2023-02-03T10:40:03;13.60;99.90
23568;DHT22;11962;50.838;4.430;2023-02-03T10:42:30;13.60;99.90
23568;DHT22;11962;50.838;4.430;2023-02-03T10:45:17;13.40;99.90
23568;DHT22;11962;50.838;4.430;2023-02-03T10:47:50;13.30;99.90
23568;DHT22;11962;50.838;4.430;2023-02-03T10:50:19;13.40;99.90
23568;DHT22;11962;50.838;4.430;2023-02-03T10:52:45;13.40;99.90
23568;DHT22;11962;50.838;4.430;2023-02-03T10:57:47;13.50;99.90
23568;DHT22;11962;50.838;4.430;2023-02-03T11:00:30;13.50;99.90
23568;DHT22;11962;50.838;4.430;2023-02-03T11:06:14;13.50;99.90
23568;DHT22;11962;50.838;4.430;2023-02-03T11:08:46;13.40;99.90
23568;DHT22;11962;50.838;4.430;2023-02-03T11:11:14;13.30;99.90
23568;DHT22;11962;50.838;4.430;2023-02-03T11:13:44;13.30;99.90
23568;DHT22;11962;50.838;4.430;2023-02-03T11:16:15;13.20;99.90
23568;DHT22;11962;50.838;4.430;2023-02-03T11:19:19;13.10;99.90
23568;DHT22;11962;50.838;4.430;2023-02-03T11:21:53;13.20;99.90
23568;DHT22;11962;50.838;4.430;2023-02-03T11:24:29;13.20;99.90
23568;DHT22;11962;50.838;4.430;2023-02-03T11:26:56;13.20;99.90
23568;DHT22;11962;50.838;4.430;2023-02-03T11:29:44;13.10;99.90
23568;DHT22;11962;50.838;4.430;2023-02-03T11:32:22;13.00;99.90
23568;DHT22;11962;50.838;4.430;2023-02-03T11:35:16;13.00;99.90
23568;DHT22;11962;50.838;4.430;2023-02-03T11:37:51;12.70;99.90
23568;DHT22;11962;50.838;4.430;2023-02-03T11:53:29;12.40;99.90
23568;DHT22;11962;50.838;4.430;2023-02-03T11:59:10;12.40;99.90
23568;DHT22;11962;50.838;4.430;2023-02-03T12:10:01;12.50;99.90
23568;DHT22;11962;50.838;4.430;2023-02-03T12:21:17;12.80;99.90
23568;DHT22;11962;50.838;4.430;2023-02-03T12:29:23;13.20;99.90
23568;DHT22;11962;50.838;4.430;2023-02-03T12:34:49;13.10;99.90
23568;DHT22;11962;50.838;4.430;2023-02-03T12:37:24;13.10;99.90
23568;DHT22;11962;50.838;4.430;2023-02-03T12:42:54;13.10;99.90
23568;DHT22;11962;50.838;4.430;2023-02-03T12:45:26;13.20;99.90
23568;DHT22;11962;50.838;4.430;2023-02-03T12:48:09;13.10;99.90
23568;DHT22;11962;50.838;4.430;2023-02-03T12:50:48;13.20;99.90
23568;DHT22;11962;50.838;4.430;2023-02-03T12:53:36;13.20;99.90
23568;DHT22;11962;50.838;4.430;2023-02-03T12:56:12;13.20;99.90
23568;DHT22;11962;50.838;4.430;2023-02-03T12:58:46;13.30;99.90
23568;DHT22;11962;50.838;4.430;2023-02-03T13:01:22;13.20;99.90
23568;DHT22;11962;50.838;4.430;2023-02-03T13:12:43;13.60;99.90
23568;DHT22;11962;50.838;4.430;2023-02-03T13:15:24;13.60;99.90
23568;DHT22;11962;50.838;4.430;2023-02-03T13:17:56;13.70;99.90
23568;DHT22;11962;50.838;4.430;2023-02-03T13:20:32;13.70;99.90
23568;DHT22;11962;50.838;4.430;2023-02-03T13:23:04;13.70;99.90
23568;DHT22;11962;50.838;4.430;2023-02-03T13:33:49;13.60;99.90
23568;DHT22;11962;50.838;4.430;2023-02-03T13:36:43;13.60;99.90
23568;DHT22;11962;50.838;4.430;2023-02-03T13:44:48;13.70;99.90
23568;DHT22;11962;50.838;4.430;2023-02-03T13:47:29;13.80;99.90
23568;DHT22;11962;50.838;4.430;2023-02-03T13:50:24;13.80;99.90
23568;DHT22;11962;50.838;4.430;2023-02-03T13:55:27;13.80;99.90
23568;DHT22;11962;50.838;4.430;2023-02-03T13:57:54;13.80;99.90
23568;DHT22;11962;50.838;4.430;2023-02-03T14:06:57;13.90;99.90
23568;DHT22;11962;50.838;4.430;2023-02-03T14:09:00;13.90;99.90
23568;DHT22;11962;50.838;4.430;2023-02-03T14:16:41;13.70;99.90
23568;DHT22;11962;50.838;4.430;2023-02-03T14:19:11;13.70;99.90
23568;DHT22;11962;50.838;4.430;2023-02-03T14:22:04;13.80;99.90
23568;DHT22;11962;50.838;4.430;2023-02-03T14:27:04;13.80;99.90
23568;DHT22;11962;50.838;4.430;2023-02-03T14:29:33;13.80;99.90
23568;DHT22;11962;50.838;4.430;2023-02-03T14:32:08;13.80;99.90
23568;DHT22;11962;50.838;4.430;2023-02-03T14:34:51;13.80;99.90
23568;DHT22;11962;50.838;4.430;2023-02-03T14:37:29;13.80;99.90
23568;DHT22;11962;50.838;4.430;2023-02-03T14:59:02;13.50;99.90
23568;DHT22;11962;50.838;4.430;2023-02-03T15:04:23;13.60;99.90
23568;DHT22;11962;50.838;4.430;2023-02-03T15:06:51;13.60;99.90
23568;DHT22;11962;50.838;4.430;2023-02-03T15:09:45;13.60;99.90
23568;DHT22;11962;50.838;4.430;2023-02-03T15:12:16;13.60;99.90
23568;DHT22;11962;50.838;4.430;2023-02-03T15:14:42;13.50;99.90
23568;DHT22;11962;50.838;4.430;2023-02-03T15:17:22;13.60;99.90
23568;DHT22;11962;50.838;4.430;2023-02-03T15:19:49;13.60;99.90
23568;DHT22;11962;50.838;4.430;2023-02-03T15:22:19;13.60;99.90
23568;DHT22;11962;50.838;4.430;2023-02-03T15:24:46;13.70;99.90
23568;DHT22;11962;50.838;4.430;2023-02-03T15:27:23;13.60;99.90
23568;DHT22;11962;50.838;4.430;2023-02-03T15:29:54;13.60;99.90
23568;DHT22;11962;50.838;4.430;2023-02-03T15:32:41;13.60;99.90
23568;DHT22;11962;50.838;4.430;2023-02-03T15:35:15;13.60;99.90
23568;DHT22;11962;50.838;4.430;2023-02-03T15:38:03;13.50;99.90
23568;DHT22;11962;50.838;4.430;2023-02-03T15:40:56;13.50;99.90
23568;DHT22;11962;50.838;4.430;2023-02-03T15:43:31;13.50;99.90
23568;DHT22;11962;50.838;4.430;2023-02-03T15:48:53;13.50;99.90
23568;DHT22;11962;50.838;4.430;2023-02-03T15:51:26;13.60;99.90
23568;DHT22;11962;50.838;4.430;2023-02-03T15:54:12;13.50;99.90
23568;DHT22;11962;50.838;4.430;2023-02-03T15:57:04;13.50;99.90
23568;DHT22;11962;50.838;4.430;2023-02-03T15:59:38;13.40;99.90
23568;DHT22;11962;50.838;4.430;2023-02-03T16:02:33;13.40;99.90
23568;DHT22;11962;50.838;4.430;2023-02-03T16:05:20;13.40;99.90
23568;DHT22;11962;50.838;4.430;2023-02-03T16:07:46;13.40;99.90
23568;DHT22;11962;50.838;4.430;2023-02-03T16:10:31;13.40;99.90
23568;DHT22;11962;50.838;4.430;2023-02-03T16:13:27;13.50;99.90
23568;DHT22;11962;50.838;4.430;2023-02-03T16:15:58;13.40;99.90
23568;DHT22;11962;50.838;4.430;2023-02-03T16:18:24;13.40;99.90
23568;DHT22;11962;50.838;4.430;2023-02-03T16:20:50;13.40;99.90
23568;DHT22;11962;50.838;4.430;2023-02-03T16:23:19;13.40;99.90
23568;DHT22;11962;50.838;4.430;2023-02-03T16:26:03;13.40;99.90
23568;DHT22;11962;50.838;4.430;2023-02-03T16:28:29;13.50;99.90
23568;DHT22;11962;50.838;4.430;2023-02-03T16:31:15;13.40;99.90
23568;DHT22;11962;50.838;4.430;2023-02-03T16:34:01;13.40;99.90
23568;DHT22;11962;50.838;4.430;2023-02-03T16:36:51;13.40;99.90
23568;DHT22;11962;50.838;4.430;2023-02-03T16:39:37;13.40;99.90
23568;DHT22;11962;50.838;4.430;2023-02-03T16:42:25;13.40;99.90
23568;DHT22;11962;50.838;4.430;2023-02-03T16:45:15;13.40;99.90
23568;DHT22;11962;50.838;4.430;2023-02-03T16:48:01;13.40;99.90
23568;DHT22;11962;50.838;4.430;2023-02-03T16:50:49;13.30;99.90
23568;DHT22;11962;50.838;4.430;2023-02-03T16:53:23;13.30;99.90
23568;DHT22;11962;50.838;4.430;2023-02-03T16:55:51;13.30;99.90
23568;DHT22;11962;50.838;4.430;2023-02-03T16:58:17;13.30;99.90
23568;DHT22;11962;50.838;4.430;2023-02-03T17:00:44;13.20;99.90
23568;DHT22;11962;50.838;4.430;2023-02-03T17:03:13;13.20;99.90
23568;DHT22;11962;50.838;4.430;2023-02-03T17:05:41;13.20;99.90
23568;DHT22;11962;50.838;4.430;2023-02-03T17:08:19;13.20;99.90
23568;DHT22;11962;50.838;4.430;2023-02-03T17:10:45;13.10;99.90
23568;DHT22;11962;50.838;4.430;2023-02-03T17:13:13;13.10;99.90
23568;DHT22;11962;50.838;4.430;2023-02-03T17:15:44;13.10;99.90
23568;DHT22;11962;50.838;4.430;2023-02-03T17:18:12;13.00;99.90
23568;DHT22;11962;50.838;4.430;2023-02-03T17:20:43;13.00;99.90
23568;DHT22;11962;50.838;4.430;2023-02-03T17:23:09;13.00;99.90
23568;DHT22;11962;50.838;4.430;2023-02-03T17:25:36;13.00;99.90
23568;DHT22;11962;50.838;4.430;2023-02-03T17:28:06;13.00;99.90
23568;DHT22;11962;50.838;4.430;2023-02-03T17:30:32;13.00;99.90
23568;DHT22;11962;50.838;4.430;2023-02-03T17:33:00;12.90;99.90
23568;DHT22;11962;50.838;4.430;2023-02-03T17:35:26;12.90;99.90
23568;DHT22;11962;50.838;4.430;2023-02-03T17:41:17;12.80;99.90
23568;DHT22;11962;50.838;4.430;2023-02-03T17:43:43;12.70;99.90
23568;DHT22;11962;50.838;4.430;2023-02-03T17:46:14;12.70;99.90
23568;DHT22;11962;50.838;4.430;2023-02-03T17:48:45;12.60;99.90
23568;DHT22;11962;50.838;4.430;2023-02-03T17:51:19;12.60;99.90
23568;DHT22;11962;50.838;4.430;2023-02-03T17:54:01;12.60;99.90
23568;DHT22;11962;50.838;4.430;2023-02-03T17:56:34;12.60;99.90
23568;DHT22;11962;50.838;4.430;2023-02-03T17:59:12;12.60;99.90
23568;DHT22;11962;50.838;4.430;2023-02-03T18:01:38;12.60;99.90
23568;DHT22;11962;50.838;4.430;2023-02-03T18:04:07;12.60;99.90
23568;DHT22;11962;50.838;4.430;2023-02-03T18:06:34;12.70;99.90
23568;DHT22;11962;50.838;4.430;2023-02-03T18:09:20;12.70;99.90
23568;DHT22;11962;50.838;4.430;2023-02-03T18:11:45;12.70;99.90
23568;DHT22;11962;50.838;4.430;2023-02-03T18:14:12;12.70;99.90
23568;DHT22;11962;50.838;4.430;2023-02-03T18:16:39;12.70;99.90
23568;DHT22;11962;50.838;4.430;2023-02-03T18:19:08;12.70;99.90
23568;DHT22;11962;50.838;4.430;2023-02-03T18:21:37;12.70;99.90
23568;DHT22;11962;50.838;4.430;2023-02-03T18:24:13;12.70;99.90
23568;DHT22;11962;50.838;4.430;2023-02-03T18:26:49;12.70;99.90
23568;DHT22;11962;50.838;4.430;2023-02-03T18:29:15;12.80;99.90
23568;DHT22;11962;50.838;4.430;2023-02-03T18:31:41;12.80;99.90
23568;DHT22;11962;50.838;4.430;2023-02-03T18:34:08;12.80;99.90
23568;DHT22;11962;50.838;4.430;2023-02-03T18:36:34;12.90;99.90
23568;DHT22;11962;50.838;4.430;2023-02-03T18:39:09;12.90;99.90
23568;DHT22;11962;50.838;4.430;2023-02-03T18:41:38;12.80;99.90
23568;DHT22;11962;50.838;4.430;2023-02-03T18:44:06;12.90;99.90
23568;DHT22;11962;50.838;4.430;2023-02-03T18:46:32;12.90;99.90
23568;DHT22;11962;50.838;4.430;2023-02-03T18:49:00;12.90;99.90